createdAt,value
2016-08-18T15:26:19.245Z,1004.76
2016-08-18T15:28:57.117Z,1004.74
2016-08-18T15:30:10.094Z,1004.76
2016-08-18T15:31:23.084Z,1004.76
2016-08-18T15:32:36.071Z,1004.75
2016-08-18T15:33:49.058Z,1004.76
2016-08-18T15:35:02.045Z,1004.75
2016-08-18T15:36:15.534Z,1004.76
2016-08-18T15:37:28.523Z,1004.71
2016-08-18T15:38:41.518Z,1004.71
2016-08-18T15:39:54.510Z,1004.73
2016-08-18T15:41:07.494Z,1004.69
2016-08-18T15:42:20.492Z,1004.71
2016-08-18T15:43:33.684Z,1004.73
2016-08-18T15:44:46.869Z,1004.73
2016-08-18T15:45:59.863Z,1004.7
2016-08-18T15:47:13.052Z,1004.7
2016-08-18T15:48:26.247Z,1004.72
2016-08-18T15:49:39.239Z,1004.72
2016-08-18T15:50:52.221Z,1004.71
2016-08-18T15:52:05.211Z,1004.72
2016-08-18T15:53:18.205Z,1004.74
2016-08-18T15:54:31.199Z,1004.72
2016-08-18T15:55:44.198Z,1004.72
2016-08-18T15:56:57.226Z,1004.73
2016-08-18T15:58:10.212Z,1004.71
2016-08-18T15:59:23.203Z,1004.7
2016-08-18T16:00:36.197Z,1004.69
2016-08-18T16:01:49.189Z,1004.7
2016-08-18T16:03:02.195Z,1004.71
2016-08-18T16:04:15.192Z,1004.69
2016-08-18T16:05:28.373Z,1004.72
2016-08-18T16:06:41.363Z,1004.71
2016-08-18T16:07:54.352Z,1004.68
2016-08-18T16:09:07.379Z,1004.69
2016-08-18T16:10:20.360Z,1004.7
2016-08-18T16:11:33.366Z,1004.72
2016-08-18T16:12:46.566Z,1004.71
2016-08-18T16:13:59.567Z,1004.71
2016-08-18T16:15:12.562Z,1004.72
2016-08-18T16:16:25.764Z,1004.72
2016-08-18T16:17:38.747Z,1004.72
2016-08-18T16:18:51.938Z,1004.72
2016-08-18T16:20:04.933Z,1004.72
2016-08-18T16:21:17.938Z,1004.74
2016-08-18T16:22:30.929Z,1004.69
2016-08-18T16:23:43.913Z,1004.73
2016-08-18T16:24:56.898Z,1004.75
2016-08-18T16:26:09.884Z,1004.79
2016-08-18T16:27:23.079Z,1004.77
2016-08-18T16:28:36.271Z,1004.81
2016-08-18T16:29:49.264Z,1004.82
2016-08-18T16:31:02.247Z,1004.77
2016-08-18T16:32:15.242Z,1004.76
2016-08-18T16:33:28.243Z,1004.8
2016-08-18T16:34:41.436Z,1004.77
2016-08-18T16:35:54.435Z,1004.79
2016-08-18T16:37:07.560Z,1004.76
2016-08-18T16:38:20.546Z,1004.78
2016-08-18T16:39:33.741Z,1004.77
2016-08-18T16:40:46.936Z,1004.83
2016-08-18T16:41:59.917Z,1004.85
2016-08-18T16:43:12.917Z,1004.83
2016-08-18T16:44:25.910Z,1004.84
2016-08-18T16:45:38.900Z,1004.84
2016-08-18T16:46:51.898Z,1004.81
2016-08-18T16:48:04.912Z,1004.84
2016-08-18T16:49:17.890Z,1004.83
2016-08-18T16:50:30.880Z,1004.86
2016-08-18T16:51:43.887Z,1004.88
2016-08-18T16:52:56.880Z,1004.85
2016-08-18T16:54:09.877Z,1004.83
2016-08-18T16:55:22.878Z,1004.85
2016-08-18T16:56:35.870Z,1004.87
2016-08-18T16:57:48.855Z,1004.86
2016-08-18T16:59:01.842Z,1004.85
2016-08-18T17:00:15.033Z,1004.87
2016-08-18T17:01:28.025Z,1004.88
2016-08-18T17:02:41.005Z,1004.91
2016-08-18T17:03:53.996Z,1004.9
2016-08-18T17:05:07.194Z,1004.87
2016-08-18T17:06:20.184Z,1004.92
2016-08-18T17:07:33.365Z,1004.9
2016-08-18T17:08:46.366Z,1004.92
2016-08-18T17:09:59.351Z,1004.91
2016-08-18T17:11:12.346Z,1004.94
2016-08-18T17:12:25.333Z,1004.89
2016-08-18T17:13:38.334Z,1004.93
2016-08-18T17:14:51.314Z,1004.89
2016-08-18T17:16:04.289Z,1004.91
2016-08-18T17:17:17.279Z,1004.9
2016-08-18T17:18:30.473Z,1004.89
2016-08-18T17:19:43.458Z,1004.93
2016-08-18T17:20:56.445Z,1004.94
2016-08-18T17:22:09.640Z,1004.92
2016-08-18T17:23:22.625Z,1004.91
2016-08-18T17:24:35.606Z,1004.96
2016-08-18T17:25:48.598Z,1004.97
2016-08-18T17:27:01.593Z,1004.95
2016-08-18T17:28:14.583Z,1005
2016-08-18T17:29:27.568Z,1004.99
2016-08-18T17:30:40.554Z,1004.99
2016-08-18T17:31:53.532Z,1005.03
2016-08-18T17:33:06.524Z,1005.01
2016-08-18T17:34:19.513Z,1005.05
2016-08-18T17:35:32.497Z,1005.05
2016-08-18T17:36:45.496Z,1005.1
2016-08-18T17:37:58.680Z,1005.09
2016-08-18T17:39:11.669Z,1005.11
2016-08-18T17:40:24.649Z,1005.09
2016-08-18T17:41:37.633Z,1005.08
2016-08-18T17:42:50.642Z,1005.08
2016-08-18T17:44:04.025Z,1005.08
2016-08-18T17:45:17.018Z,1005.08
2016-08-18T17:46:30.207Z,1005.09
2016-08-18T17:47:43.203Z,1005.12
2016-08-18T17:48:56.188Z,1005.09
2016-08-18T17:50:09.182Z,1005.15
2016-08-18T17:51:22.172Z,1005.16
2016-08-18T17:52:35.180Z,1005.16
2016-08-18T17:53:48.168Z,1005.15
2016-08-18T17:55:01.153Z,1005.09
2016-08-18T17:56:14.141Z,1005.18
2016-08-18T17:57:27.127Z,1005.16
2016-08-18T17:58:40.111Z,1005.13
2016-08-18T17:59:53.100Z,1005.13
2016-08-18T18:01:06.111Z,1005.17
2016-08-18T18:02:19.096Z,1005.18
2016-08-18T18:03:32.084Z,1005.16
2016-08-18T18:04:45.078Z,1005.18
2016-08-18T18:05:58.064Z,1005.17
2016-08-18T18:07:11.073Z,1005.2
2016-08-18T18:08:24.054Z,1005.21
2016-08-18T18:09:37.244Z,1005.26
2016-08-18T18:10:50.235Z,1005.29
2016-08-18T18:12:03.226Z,1005.28
2016-08-18T18:13:16.213Z,1005.26
2016-08-18T18:14:29.206Z,1005.29
2016-08-18T18:15:42.204Z,1005.28
2016-08-18T18:16:55.234Z,1005.27
2016-08-18T18:18:08.334Z,1005.33
2016-08-18T18:19:21.324Z,1005.28
2016-08-18T18:20:34.319Z,1005.3
2016-08-18T18:21:47.307Z,1005.32
2016-08-18T18:23:00.307Z,1005.34
2016-08-18T18:24:13.293Z,1005.33
2016-08-18T18:25:26.284Z,1005.32
2016-08-18T18:26:39.286Z,1005.3
2016-08-18T18:27:52.268Z,1005.28
2016-08-18T18:29:05.251Z,1005.33
2016-08-18T18:30:18.239Z,1005.28
2016-08-18T18:31:31.227Z,1005.31
2016-08-18T18:32:44.423Z,1005.31
2016-08-18T18:33:57.412Z,1005.34
2016-08-18T18:35:10.405Z,1005.33
2016-08-18T18:36:23.387Z,1005.38
2016-08-18T18:37:36.377Z,1005.36
2016-08-18T18:38:49.357Z,1005.35
2016-08-18T18:40:02.339Z,1005.34
2016-08-18T18:41:15.746Z,1005.35
2016-08-18T18:42:28.949Z,1005.41
2016-08-18T18:43:41.940Z,1005.4
2016-08-18T18:44:54.946Z,1005.4
2016-08-18T18:46:07.933Z,1005.38
2016-08-18T18:47:20.915Z,1005.42
2016-08-18T18:48:33.914Z,1005.42
2016-08-18T18:49:46.898Z,1005.42
2016-08-18T18:50:59.891Z,1005.43
2016-08-18T18:52:12.878Z,1005.44
2016-08-18T18:53:25.879Z,1005.44
2016-08-18T18:54:38.873Z,1005.49
2016-08-18T18:55:51.854Z,1005.49
2016-08-18T18:57:04.852Z,1005.53
2016-08-18T18:58:18.045Z,1005.49
2016-08-18T18:59:31.027Z,1005.48
2016-08-18T19:00:44.017Z,1005.47
2016-08-18T19:01:56.999Z,1005.49
2016-08-18T19:03:09.985Z,1005.53
2016-08-18T19:04:23.180Z,1005.52
2016-08-18T19:05:36.166Z,1005.5
2016-08-18T19:06:49.154Z,1005.53
2016-08-18T19:08:02.343Z,1005.58
2016-08-18T19:09:15.323Z,1005.55
2016-08-18T19:10:28.558Z,1005.57
2016-08-18T19:11:41.538Z,1005.55
2016-08-18T19:12:54.536Z,1005.6
2016-08-18T19:14:07.522Z,1005.63
2016-08-18T19:15:20.508Z,1005.6
2016-08-18T19:16:33.691Z,1005.6
2016-08-18T19:17:46.682Z,1005.69
2016-08-18T19:18:59.868Z,1005.65
2016-08-18T19:20:12.844Z,1005.64
2016-08-18T19:21:26.036Z,1005.64
2016-08-18T19:22:39.026Z,1005.66
2016-08-18T19:23:52.017Z,1005.72
2016-08-18T19:25:05.202Z,1005.72
2016-08-18T19:26:18.196Z,1005.72
2016-08-18T19:27:31.178Z,1005.7
2016-08-18T19:28:44.161Z,1005.71
2016-08-18T19:29:57.163Z,1005.71
2016-08-18T19:31:10.175Z,1005.7
2016-08-18T19:32:23.158Z,1005.67
2016-08-18T19:33:36.534Z,1005.7
2016-08-18T19:34:49.530Z,1005.71
2016-08-18T19:36:02.541Z,1005.68
2016-08-18T19:37:15.525Z,1005.67
2016-08-18T19:38:28.515Z,1005.74
2016-08-18T19:39:41.519Z,1005.68
2016-08-18T19:40:54.509Z,1005.69
2016-08-18T19:42:07.498Z,1005.77
2016-08-18T19:43:20.472Z,1005.76
2016-08-18T19:44:33.451Z,1005.76
2016-08-18T19:45:46.446Z,1005.73
2016-08-18T19:46:59.436Z,1005.74
2016-08-18T19:48:12.416Z,1005.76
2016-08-18T19:49:25.416Z,1005.78
2016-08-18T19:50:38.411Z,1005.78
2016-08-18T19:51:51.393Z,1005.75
2016-08-18T19:53:04.384Z,1005.75
2016-08-18T19:54:17.376Z,1005.76
2016-08-18T19:55:30.569Z,1005.71
2016-08-18T19:56:43.553Z,1005.75
2016-08-18T19:57:56.535Z,1005.76
2016-08-18T19:59:09.530Z,1005.79
2016-08-18T20:00:22.522Z,1005.82
2016-08-18T20:01:35.508Z,1005.87
2016-08-18T20:02:48.516Z,1005.83
2016-08-18T20:04:01.501Z,1005.83
2016-08-18T20:05:14.532Z,1005.86
2016-08-18T20:06:27.520Z,1005.83
2016-08-18T20:07:40.505Z,1005.84
2016-08-18T20:08:53.484Z,1005.84
2016-08-18T20:10:06.518Z,1005.85
2016-08-18T20:11:19.505Z,1005.87
2016-08-18T20:12:32.488Z,1005.92
2016-08-18T20:13:45.670Z,1005.9
2016-08-18T20:14:58.662Z,1005.89
2016-08-18T20:16:11.852Z,1005.91
2016-08-18T20:17:24.839Z,1005.89
2016-08-18T20:18:38.027Z,1005.84
2016-08-18T20:19:51.213Z,1005.85
2016-08-18T20:21:04.208Z,1005.85
2016-08-18T20:22:17.205Z,1005.83
2016-08-18T20:23:30.396Z,1005.86
2016-08-18T20:24:43.592Z,1005.83
2016-08-18T20:25:56.975Z,1005.84
2016-08-18T20:27:09.957Z,1005.84
2016-08-18T20:28:22.943Z,1005.86
2016-08-18T20:29:36.132Z,1005.88
2016-08-18T20:30:49.113Z,1005.83
2016-08-18T20:32:02.099Z,1005.86
2016-08-18T20:33:15.089Z,1005.84
2016-08-18T20:34:28.087Z,1005.83
2016-08-18T20:35:41.072Z,1005.85
2016-08-18T20:36:54.062Z,1005.85
2016-08-18T20:38:07.051Z,1005.86
2016-08-18T20:39:20.047Z,1005.9
2016-08-18T20:40:33.230Z,1005.93
2016-08-18T20:41:46.217Z,1005.95
2016-08-18T20:42:59.605Z,1005.96
2016-08-18T20:44:12.764Z,1005.92
2016-08-18T20:45:25.745Z,1005.97
2016-08-18T20:46:38.726Z,1005.98
2016-08-18T20:47:51.920Z,1006.01
2016-08-18T20:49:04.899Z,1006.02
2016-08-18T20:50:17.879Z,1006.01
2016-08-18T20:51:30.865Z,1005.99
2016-08-18T20:52:43.848Z,1006
2016-08-18T20:53:57.029Z,1006.03
2016-08-18T20:55:10.110Z,1006
2016-08-18T20:56:23.090Z,1006.05
2016-08-18T20:57:36.068Z,1006.06
2016-08-18T20:58:49.051Z,1006.05
2016-08-18T21:00:02.033Z,1006.04
2016-08-18T21:01:15.018Z,1006.01
2016-08-18T21:02:28.405Z,1006.05
2016-08-18T21:03:41.387Z,1006.03
2016-08-18T21:04:54.368Z,1006.07
2016-08-18T21:06:07.491Z,1006.1
2016-08-18T21:07:20.683Z,1006.13
2016-08-18T21:08:33.665Z,1006.13
2016-08-18T21:09:46.904Z,1006.09
2016-08-18T21:10:59.884Z,1006.12
2016-08-18T21:12:12.867Z,1006.08
2016-08-18T21:13:25.843Z,1006.05
2016-08-18T21:14:38.834Z,1006.06
2016-08-18T21:15:51.814Z,1006.07
2016-08-18T21:17:04.800Z,1006.04
2016-08-18T21:18:18.188Z,1006.03
2016-08-18T21:19:31.172Z,1006.05
2016-08-18T21:20:44.156Z,1006.05
2016-08-18T21:21:57.134Z,1006.08
2016-08-18T21:23:10.134Z,1006.06
2016-08-18T21:24:23.122Z,1006.07
2016-08-18T21:25:36.110Z,1006.11
2016-08-18T21:26:49.089Z,1006.15
2016-08-18T21:28:02.064Z,1006.16
2016-08-18T21:29:15.055Z,1006.16
2016-08-18T21:30:28.038Z,1006.19
2016-08-18T21:31:41.018Z,1006.2
2016-08-18T21:32:53.997Z,1006.2
2016-08-18T21:34:06.982Z,1006.2
2016-08-18T21:35:19.979Z,1006.19
2016-08-18T21:36:32.964Z,1006.2
2016-08-18T21:37:45.951Z,1006.21
2016-08-18T21:38:58.936Z,1006.2
2016-08-18T21:40:11.915Z,1006.23
2016-08-18T21:41:25.109Z,1006.22
2016-08-18T21:42:38.103Z,1006.23
2016-08-18T21:43:51.083Z,1006.21
2016-08-18T21:45:04.065Z,1006.23
2016-08-18T21:46:17.056Z,1006.26
2016-08-18T21:47:30.232Z,1006.27
2016-08-18T21:48:43.200Z,1006.27
2016-08-18T21:49:56.176Z,1006.29
2016-08-18T21:51:09.164Z,1006.28
2016-08-18T21:52:22.381Z,1006.29
2016-08-18T21:53:35.374Z,1006.26
2016-08-18T21:54:48.353Z,1006.31
2016-08-18T21:56:01.333Z,1006.31
2016-08-18T21:57:14.343Z,1006.33
2016-08-18T21:58:27.336Z,1006.35
2016-08-18T21:59:40.315Z,1006.3
2016-08-18T22:00:53.296Z,1006.35
2016-08-18T22:02:06.277Z,1006.33
2016-08-18T22:03:19.257Z,1006.31
2016-08-18T22:04:32.237Z,1006.35
2016-08-18T22:05:45.431Z,1006.32
2016-08-18T22:06:58.412Z,1006.3
2016-08-18T22:08:11.402Z,1006.35
2016-08-18T22:09:24.398Z,1006.33
2016-08-18T22:10:37.391Z,1006.37
2016-08-18T22:11:50.364Z,1006.38
2016-08-18T22:13:03.354Z,1006.39
2016-08-18T22:14:16.325Z,1006.35
2016-08-18T22:15:29.300Z,1006.34
2016-08-18T22:16:42.281Z,1006.35
2016-08-18T22:17:55.265Z,1006.36
2016-08-18T22:19:08.244Z,1006.35
2016-08-18T22:20:21.222Z,1006.37
2016-08-18T22:21:34.208Z,1006.37
2016-08-18T22:22:47.189Z,1006.38
2016-08-18T22:24:00.166Z,1006.38
2016-08-18T22:25:13.155Z,1006.34
2016-08-18T22:26:26.333Z,1006.33
2016-08-18T22:27:39.517Z,1006.37
2016-08-18T22:28:52.712Z,1006.28
2016-08-18T22:30:05.697Z,1006.33
2016-08-18T22:31:18.677Z,1006.35
2016-08-18T22:32:31.664Z,1006.35
2016-08-18T22:33:44.643Z,1006.3
2016-08-18T22:34:57.626Z,1006.36
2016-08-18T22:36:10.809Z,1006.38
2016-08-18T22:37:23.995Z,1006.38
2016-08-18T22:38:36.975Z,1006.37
2016-08-18T22:39:49.972Z,1006.38
2016-08-18T22:41:02.963Z,1006.34
2016-08-18T22:42:15.940Z,1006.39
2016-08-18T22:43:28.926Z,1006.36
2016-08-18T22:44:41.907Z,1006.34
2016-08-18T22:45:54.891Z,1006.34
2016-08-18T22:47:07.875Z,1006.35
2016-08-18T22:48:20.853Z,1006.35
2016-08-18T22:49:33.840Z,1006.34
2016-08-18T22:50:46.825Z,1006.33
2016-08-18T22:51:59.811Z,1006.3
2016-08-18T22:53:12.800Z,1006.33
2016-08-18T22:54:25.799Z,1006.32
2016-08-18T22:55:38.782Z,1006.32
2016-08-18T22:56:51.775Z,1006.35
2016-08-18T22:58:04.754Z,1006.33
2016-08-18T22:59:17.731Z,1006.32
2016-08-18T23:00:30.711Z,1006.31
2016-08-18T23:01:43.690Z,1006.31
2016-08-18T23:02:56.678Z,1006.31
2016-08-18T23:04:09.660Z,1006.34
2016-08-18T23:05:22.644Z,1006.34
2016-08-18T23:06:35.615Z,1006.31
2016-08-18T23:07:48.604Z,1006.31
2016-08-18T23:09:01.597Z,1006.29
2016-08-18T23:10:14.598Z,1006.3
2016-08-18T23:11:27.587Z,1006.23
2016-08-18T23:12:40.576Z,1006.23
2016-08-18T23:13:53.558Z,1006.24
2016-08-18T23:15:06.744Z,1006.26
2016-08-18T23:16:19.730Z,1006.29
2016-08-18T23:17:32.724Z,1006.33
2016-08-18T23:18:45.912Z,1006.27
2016-08-18T23:19:58.886Z,1006.28
2016-08-18T23:21:11.877Z,1006.28
2016-08-18T23:22:24.859Z,1006.32
2016-08-18T23:23:38.044Z,1006.26
2016-08-18T23:24:51.055Z,1006.27
2016-08-18T23:26:04.231Z,1006.26
2016-08-18T23:27:17.212Z,1006.25
2016-08-18T23:28:30.399Z,1006.25
2016-08-18T23:29:43.382Z,1006.26
2016-08-18T23:30:56.360Z,1006.21
2016-08-18T23:32:09.336Z,1006.23
2016-08-18T23:33:22.315Z,1006.23
2016-08-18T23:34:35.311Z,1006.2
2016-08-18T23:35:48.287Z,1006.22
2016-08-18T23:37:01.258Z,1006.24
2016-08-18T23:38:14.241Z,1006.23
2016-08-18T23:39:27.213Z,1006.24
2016-08-18T23:40:40.191Z,1006.28
2016-08-18T23:41:53.165Z,1006.26
2016-08-18T23:43:06.146Z,1006.22
2016-08-18T23:44:19.136Z,1006.24
2016-08-18T23:45:32.121Z,1006.21
2016-08-18T23:46:45.099Z,1006.23
2016-08-18T23:47:58.081Z,1006.22
2016-08-18T23:49:11.054Z,1006.26
2016-08-18T23:50:24.038Z,1006.25
2016-08-18T23:51:37.013Z,1006.2
2016-08-18T23:52:50.006Z,1006.21
2016-08-18T23:54:03.187Z,1006.23
2016-08-18T23:55:16.170Z,1006.25
2016-08-18T23:56:29.152Z,1006.24
2016-08-18T23:57:42.129Z,1006.23
2016-08-18T23:58:55.099Z,1006.23
